Time;durP1;ratioP1;P1;durP2;ratioP2;P2;SDS_P1;SDS_P2;PMS_P1;PMS_P2;Temp;Humidity;BMP_temperature;BMP_pressure;BME280_temperature;BME280_humidity;BME280_pressure;Samples;Min_cycle;Max_cycle;Signal;HPM_P1;HPM_P2
2021/05/12 00:02:12;;;;;;;0.55;0.30;;;11.30;99.90;;;;;;4950884;28;20115;-76
2021/05/12 00:04:37;;;;;;;0.55;0.32;;;11.10;99.90;;;;;;4966323;28;20146;-76
2021/05/12 00:07:03;;;;;;;1.00;0.40;;;11.30;99.90;;;;;;4962256;28;20087;-76
2021/05/12 00:09:28;;;;;;;0.68;0.30;;;11.30;99.90;;;;;;4969162;28;20123;-77
2021/05/12 00:11:54;;;;;;;1.75;0.82;;;11.30;99.90;;;;;;4959557;28;20079;-76
2021/05/12 00:14:19;;;;;;;1.98;0.68;;;11.40;99.90;;;;;;4956650;28;20080;-76
2021/05/12 00:16:45;;;;;;;0.60;0.40;;;11.20;99.90;;;;;;4958402;28;20067;-76
2021/05/12 00:19:10;;;;;;;0.50;0.47;;;11.20;99.90;;;;;;4968784;28;20079;-76
2021/05/12 00:21:49;;;;;;;0.22;0.22;;;11.20;99.90;;;;;;4954544;28;20098;-76
2021/05/12 00:24:15;;;;;;;0.65;0.50;;;11.10;99.90;;;;;;4958819;28;20162;-76
2021/05/12 00:26:42;;;;;;;0.52;0.30;;;11.10;99.90;;;;;;4953663;28;20159;-76
2021/05/12 00:29:14;;;;;;;0.32;0.20;;;11.10;99.90;;;;;;4968557;28;20170;-76
2021/05/12 00:31:41;;;;;;;0.57;0.20;;;11.10;99.90;;;;;;4959343;28;20166;-76
2021/05/12 00:34:07;;;;;;;0.15;0.15;;;11.30;99.90;;;;;;4952029;28;20154;-76
2021/05/12 00:36:33;;;;;;;0.57;0.20;;;11.10;99.90;;;;;;4955500;28;20170;-76
2021/05/12 00:39:01;;;;;;;0.30;0.20;;;11.30;99.90;;;;;;4950643;28;20167;-76
2021/05/12 00:41:27;;;;;;;0.57;0.10;;;11.30;99.90;;;;;;4960754;28;20088;-76
2021/05/12 00:43:52;;;;;;;0.55;0.20;;;11.30;99.90;;;;;;4968978;28;20082;-76
2021/05/12 00:46:18;;;;;;;0.70;0.20;;;11.20;99.90;;;;;;4968815;28;20075;-76
2021/05/12 00:48:43;;;;;;;0.30;0.22;;;11.30;99.90;;;;;;4952629;28;20550;-76
2021/05/12 00:51:09;;;;;;;0.20;0.20;;;11.30;99.90;;;;;;4964219;28;20102;-76
2021/05/12 00:53:36;;;;;;;1.95;0.30;;;11.10;99.90;;;;;;4966511;28;20075;-76
2021/05/12 00:56:03;;;;;;;0.30;0.25;;;11.20;99.90;;;;;;4949912;28;20086;-76
2021/05/12 00:58:29;;;;;;;1.38;0.20;;;11.10;99.90;;;;;;4962711;28;20103;-75
2021/05/12 01:00:54;;;;;;;1.08;0.20;;;11.10;99.90;;;;;;4964998;28;20096;-76
2021/05/12 01:03:21;;;;;;;0.80;0.20;;;11.20;99.90;;;;;;4967447;28;20435;-76
2021/05/12 01:05:49;;;;;;;0.65;0.20;;;11.10;99.90;;;;;;4957212;28;20072;-76
2021/05/12 01:08:15;;;;;;;0.22;0.20;;;11.00;99.90;;;;;;4956786;28;20068;-76
2021/05/12 01:10:41;;;;;;;0.20;0.10;;;11.10;99.90;;;;;;4957126;28;20098;-76
2021/05/12 01:13:07;;;;;;;0.55;0.15;;;11.10;99.90;;;;;;4967221;28;20586;-76
2021/05/12 01:15:32;;;;;;;0.52;0.20;;;11.00;99.90;;;;;;4959143;28;20166;-76
2021/05/12 01:18:08;;;;;;;0.30;0.20;;;10.80;99.90;;;;;;4971932;28;20110;-76
2021/05/12 01:20:53;;;;;;;1.15;0.20;;;10.90;99.90;;;;;;4952701;28;20102;-76
2021/05/12 01:23:20;;;;;;;0.40;0.30;;;10.80;99.90;;;;;;4951264;28;21018;-76
2021/05/12 01:25:50;;;;;;;0.82;0.15;;;10.80;99.90;;;;;;4971868;28;20067;-76
2021/05/12 01:28:17;;;;;;;0.10;0.10;;;10.80;99.90;;;;;;4971226;28;20094;-76
2021/05/12 01:30:57;;;;;;;2.40;0.25;;;10.90;99.90;;;;;;4957552;28;20190;-76
2021/05/12 01:33:23;;;;;;;1.27;0.10;;;11.00;99.90;;;;;;4936177;28;20166;-76
2021/05/12 01:35:49;;;;;;;0.30;0.28;;;11.00;99.90;;;;;;4951609;28;20771;-76
2021/05/12 01:38:15;;;;;;;0.20;0.10;;;10.90;99.90;;;;;;4954938;28;20161;-76
2021/05/12 01:40:40;;;;;;;0.70;0.17;;;10.90;99.90;;;;;;4969246;28;20099;-76
2021/05/12 01:43:06;;;;;;;0.28;0.10;;;10.70;99.90;;;;;;4967443;28;20127;-76
2021/05/12 01:45:31;;;;;;;0.13;0.10;;;10.80;99.90;;;;;;4951049;28;20094;-76
2021/05/12 01:47:57;;;;;;;0.15;0.10;;;10.70;99.90;;;;;;4952616;28;20071;-76
2021/05/12 01:50:23;;;;;;;0.10;0.10;;;10.50;99.90;;;;;;4961238;28;20495;-76
2021/05/12 01:52:48;;;;;;;0.10;0.10;;;10.60;99.90;;;;;;4954780;28;20083;-76
2021/05/12 01:55:15;;;;;;;0.10;0.10;;;10.50;99.90;;;;;;4962647;28;20090;-76
2021/05/12 01:57:42;;;;;;;0.20;0.10;;;10.60;99.90;;;;;;4950942;28;20174;-75
2021/05/12 02:00:27;;;;;;;1.70;0.10;;;10.70;99.90;;;;;;4969244;28;20119;-76
2021/05/12 02:02:53;;;;;;;1.25;0.10;;;10.60;99.90;;;;;;4958552;28;20076;-76
2021/05/12 02:05:19;;;;;;;0.32;0.10;;;10.70;99.90;;;;;;4952088;28;20085;-76
2021/05/12 02:07:48;;;;;;;0.57;0.30;;;10.50;99.90;;;;;;4960004;28;20089;-78
2021/05/12 02:10:15;;;;;;;1.75;0.68;;;10.70;99.90;;;;;;4956876;28;20087;-76
2021/05/12 02:12:40;;;;;;;0.17;0.10;;;10.60;99.90;;;;;;4954129;28;20548;-76
2021/05/12 02:15:09;;;;;;;1.75;0.30;;;10.50;99.90;;;;;;4956857;28;20084;-76
2021/05/12 02:17:35;;;;;;;0.68;0.10;;;10.60;99.90;;;;;;4954500;28;20117;-76
2021/05/12 02:20:00;;;;;;;0.60;0.10;;;10.40;99.90;;;;;;4957469;28;20182;-75
2021/05/12 02:22:26;;;;;;;0.10;0.10;;;10.30;99.90;;;;;;4952031;28;20956;-76
2021/05/12 02:24:51;;;;;;;0.30;0.20;;;10.60;99.90;;;;;;4952737;28;20082;-76
2021/05/12 02:27:17;;;;;;;0.60;0.20;;;10.50;99.90;;;;;;4950966;28;20071;-76
2021/05/12 02:29:43;;;;;;;0.13;0.10;;;10.60;99.90;;;;;;4965928;28;20155;-75
2021/05/12 02:32:08;;;;;;;0.60;0.20;;;10.50;99.90;;;;;;4958258;28;20166;-76
2021/05/12 02:34:34;;;;;;;0.28;0.10;;;10.70;99.90;;;;;;4950967;28;20083;-75
2021/05/12 02:36:59;;;;;;;0.40;0.10;;;10.50;99.90;;;;;;4950220;29;20179;-76
2021/05/12 02:39:28;;;;;;;1.63;0.10;;;10.50;99.90;;;;;;4950556;28;20467;-76
2021/05/12 02:41:54;;;;;;;0.70;0.10;;;10.60;99.90;;;;;;4961657;28;20768;-76
2021/05/12 02:44:20;;;;;;;0.03;0.00;;;10.50;99.90;;;;;;4958043;28;20064;-76
2021/05/12 02:46:46;;;;;;;0.55;0.00;;;10.30;99.90;;;;;;4955596;28;20080;-76
2021/05/12 02:49:12;;;;;;;0.10;0.10;;;10.40;99.90;;;;;;4968368;28;20086;-75
2021/05/12 02:51:37;;;;;;;0.10;0.10;;;10.30;99.90;;;;;;4966257;28;20075;-75
2021/05/12 02:54:03;;;;;;;0.10;0.00;;;10.40;99.90;;;;;;4952630;28;20075;-76
2021/05/12 02:56:29;;;;;;;0.68;0.10;;;10.40;99.90;;;;;;4956381;28;20087;-76
2021/05/12 02:58:54;;;;;;;0.00;0.00;;;10.40;99.90;;;;;;4965322;28;20162;-76
2021/05/12 03:01:20;;;;;;;0.20;0.10;;;10.40;99.90;;;;;;4964047;28;20582;-76
2021/05/12 03:03:45;;;;;;;0.10;0.10;;;10.30;99.90;;;;;;4951166;28;20107;-75
2021/05/12 03:06:11;;;;;;;0.20;0.10;;;10.30;99.90;;;;;;4949918;28;20083;-75
2021/05/12 03:08:36;;;;;;;1.15;0.10;;;10.30;99.90;;;;;;4955008;28;20075;-76
2021/05/12 03:11:02;;;;;;;0.10;0.10;;;10.20;99.90;;;;;;4955622;28;20186;-75
2021/05/12 03:13:28;;;;;;;0.20;0.13;;;10.10;99.90;;;;;;4971086;28;20179;-75
2021/05/12 03:15:54;;;;;;;0.15;0.08;;;10.20;99.90;;;;;;4968600;28;20091;-75
2021/05/12 03:18:19;;;;;;;0.40;0.08;;;10.10;99.90;;;;;;4950968;28;20087;-75
2021/05/12 03:20:45;;;;;;;0.03;0.00;;;10.20;99.90;;;;;;4951982;28;20107;-76
2021/05/12 03:23:11;;;;;;;0.90;0.00;;;10.20;99.90;;;;;;4951831;28;20091;-76
2021/05/12 03:25:36;;;;;;;0.20;0.00;;;10.10;99.90;;;;;;4950216;28;20090;-75
2021/05/12 03:28:03;;;;;;;0.10;0.10;;;10.00;99.90;;;;;;4951468;29;20142;-75
2021/05/12 03:30:34;;;;;;;1.05;0.00;;;10.30;99.90;;;;;;4935886;29;20111;-76
2021/05/12 03:33:02;;;;;;;0.40;0.20;;;9.90;99.90;;;;;;4951308;28;20123;-75
2021/05/12 03:35:28;;;;;;;0.28;0.10;;;9.90;99.90;;;;;;4949494;28;20080;-75
2021/05/12 03:37:56;;;;;;;0.20;0.20;;;9.90;99.90;;;;;;4950461;28;20108;-75
2021/05/12 03:40:22;;;;;;;0.15;0.00;;;9.90;99.90;;;;;;4933534;29;20115;-75
2021/05/12 03:42:48;;;;;;;0.03;0.00;;;10.00;99.90;;;;;;4955628;28;20103;-76
2021/05/12 03:45:15;;;;;;;0.10;0.10;;;10.00;99.90;;;;;;4963053;28;20075;-76
2021/05/12 03:47:40;;;;;;;0.10;0.10;;;9.90;99.90;;;;;;4955711;28;20556;-75
2021/05/12 03:50:08;;;;;;;0.80;0.10;;;10.10;99.90;;;;;;4952820;28;20092;-76
2021/05/12 03:52:33;;;;;;;0.22;0.10;;;10.10;99.90;;;;;;4948013;29;20588;-76
2021/05/12 03:54:59;;;;;;;0.00;0.00;;;10.10;99.90;;;;;;4952096;28;20163;-76
2021/05/12 03:57:25;;;;;;;0.20;0.10;;;10.10;99.90;;;;;;4958513;28;20496;-76
2021/05/12 03:59:50;;;;;;;0.32;0.15;;;10.10;99.90;;;;;;4958337;28;20096;-76
2021/05/12 04:02:16;;;;;;;0.00;0.00;;;10.00;99.90;;;;;;4969749;28;20100;-76
2021/05/12 04:04:41;;;;;;;0.10;0.10;;;9.80;99.90;;;;;;4952834;28;20087;-76
2021/05/12 04:07:07;;;;;;;0.10;0.00;;;10.10;99.90;;;;;;4955938;28;20510;-76
2021/05/12 04:09:33;;;;;;;1.50;0.30;;;10.00;99.90;;;;;;4951525;28;20088;-76
2021/05/12 04:11:59;;;;;;;1.20;0.47;;;10.00;99.90;;;;;;4956820;28;20079;-76
2021/05/12 04:14:24;;;;;;;1.08;0.70;;;10.10;99.90;;;;;;4961263;28;20567;-76
2021/05/12 04:16:52;;;;;;;2.08;0.50;;;10.10;99.90;;;;;;4960320;28;20084;-77
2021/05/12 04:19:17;;;;;;;1.27;0.93;;;10.20;99.90;;;;;;4950237;28;20107;-77
2021/05/12 04:21:43;;;;;;;1.17;0.50;;;10.10;99.90;;;;;;4969208;28;20598;-76
2021/05/12 04:24:09;;;;;;;0.40;0.20;;;10.00;99.90;;;;;;4954379;28;20484;-76
2021/05/12 04:26:34;;;;;;;0.82;0.30;;;10.00;99.90;;;;;;4956792;28;20091;-76
2021/05/12 04:29:00;;;;;;;0.10;0.10;;;9.90;99.90;;;;;;4966911;28;20154;-76
2021/05/12 04:31:26;;;;;;;0.45;0.10;;;10.00;99.90;;;;;;4957005;28;20134;-76
2021/05/12 04:33:52;;;;;;;0.13;0.10;;;9.90;99.90;;;;;;4951180;29;20076;-76
2021/05/12 04:36:17;;;;;;;0.40;0.10;;;9.90;99.90;;;;;;4966134;28;20706;-76
2021/05/12 04:38:43;;;;;;;0.00;0.00;;;10.00;99.90;;;;;;4968834;28;20148;-76
2021/05/12 04:41:08;;;;;;;0.00;0.00;;;9.90;99.90;;;;;;4958274;28;20744;-76
2021/05/12 04:43:34;;;;;;;1.35;0.10;;;9.80;99.90;;;;;;4959545;28;20084;-76
2021/05/12 04:46:02;;;;;;;0.47;0.20;;;9.90;99.90;;;;;;4961730;28;20455;-76
2021/05/12 04:48:27;;;;;;;0.20;0.00;;;10.00;99.90;;;;;;4971287;28;20075;-76
2021/05/12 04:50:53;;;;;;;1.02;0.10;;;10.00;99.90;;;;;;4958178;28;20098;-76
2021/05/12 04:53:18;;;;;;;0.15;0.10;;;10.00;99.90;;;;;;4958773;28;20086;-76
2021/05/12 04:55:44;;;;;;;0.20;0.00;;;9.80;99.90;;;;;;4955465;28;20563;-76
2021/05/12 04:58:09;;;;;;;0.10;0.10;;;9.80;99.90;;;;;;4960860;28;20090;-76
2021/05/12 05:00:35;;;;;;;0.10;0.10;;;9.80;99.90;;;;;;4965961;28;20110;-75
2021/05/12 05:03:03;;;;;;;0.10;0.00;;;9.90;99.90;;;;;;4977707;28;20138;-76
2021/05/12 05:05:29;;;;;;;0.50;0.15;;;9.80;99.90;;;;;;4949783;28;20086;-76
2021/05/12 05:07:54;;;;;;;0.47;0.20;;;10.00;99.90;;;;;;4960889;28;20304;-76
2021/05/12 05:10:20;;;;;;;2.15;1.05;;;9.90;99.90;;;;;;4959764;28;20518;-76
2021/05/12 05:12:46;;;;;;;0.82;0.30;;;9.70;99.90;;;;;;4968206;28;20082;-76
2021/05/12 05:15:12;;;;;;;0.15;0.00;;;9.80;99.90;;;;;;4957449;28;20086;-76
2021/05/12 05:17:39;;;;;;;0.22;0.00;;;9.80;99.90;;;;;;4963114;28;20067;-76
2021/05/12 05:20:06;;;;;;;0.45;0.10;;;9.60;99.90;;;;;;4969132;28;20083;-76
2021/05/12 05:22:33;;;;;;;0.47;0.45;;;9.80;99.90;;;;;;4963956;28;20215;-76
2021/05/12 05:24:58;;;;;;;0.20;0.10;;;9.90;99.90;;;;;;4966266;28;20082;-76
2021/05/12 05:27:24;;;;;;;1.98;0.10;;;9.90;99.90;;;;;;4958376;28;20071;-76
2021/05/12 05:29:51;;;;;;;0.38;0.10;;;9.80;99.90;;;;;;4954124;28;20120;-76
2021/05/12 05:32:16;;;;;;;1.27;0.00;;;9.70;99.90;;;;;;4954105;28;20067;-76
2021/05/12 05:34:42;;;;;;;0.13;0.00;;;9.80;99.90;;;;;;4966586;28;20083;-79
2021/05/12 05:37:08;;;;;;;0.22;0.13;;;9.90;99.90;;;;;;4971380;28;20091;-77
2021/05/12 05:39:36;;;;;;;0.10;0.10;;;9.90;99.90;;;;;;4970709;28;20652;-76
2021/05/12 05:42:06;;;;;;;0.77;0.10;;;9.80;99.90;;;;;;4951724;28;20225;-74
2021/05/12 05:44:32;;;;;;;0.10;0.00;;;9.90;99.90;;;;;;4974715;28;20101;-76
2021/05/12 05:46:58;;;;;;;0.38;0.10;;;9.80;99.90;;;;;;4966905;28;20082;-77
2021/05/12 05:49:24;;;;;;;0.00;0.00;;;9.90;99.90;;;;;;4965683;28;20094;-77
2021/05/12 05:51:51;;;;;;;0.40;0.05;;;9.90;99.90;;;;;;4938532;28;20436;-76
2021/05/12 05:54:16;;;;;;;0.13;0.00;;;9.90;99.90;;;;;;4955913;28;20107;-77
2021/05/12 05:56:42;;;;;;;0.20;0.10;;;9.90;99.90;;;;;;4959918;28;20079;-76
2021/05/12 05:59:07;;;;;;;0.57;0.03;;;10.00;99.90;;;;;;4953809;28;20092;-77
2021/05/12 06:01:33;;;;;;;0.52;0.20;;;9.90;99.90;;;;;;4948589;28;20127;-77
2021/05/12 06:03:59;;;;;;;0.40;0.40;;;9.80;99.90;;;;;;4952501;28;20604;-77
2021/05/12 06:06:24;;;;;;;0.30;0.20;;;9.90;99.90;;;;;;4952592;28;20166;-76
2021/05/12 06:08:50;;;;;;;0.13;0.10;;;9.90;99.90;;;;;;4953742;28;20158;-80
2021/05/12 06:11:15;;;;;;;0.08;0.08;;;10.00;99.90;;;;;;4959466;28;20103;-75
2021/05/12 06:13:41;;;;;;;0.30;0.00;;;9.80;99.90;;;;;;4954497;28;20082;-76
2021/05/12 06:16:06;;;;;;;0.40;0.20;;;9.80;99.90;;;;;;4947789;28;20072;-76
2021/05/12 06:18:32;;;;;;;2.72;1.90;;;9.90;99.90;;;;;;4942696;28;20089;-76
2021/05/12 06:20:58;;;;;;;0.30;0.10;;;9.90;99.90;;;;;;4955954;28;20107;-75
2021/05/12 06:23:23;;;;;;;1.45;0.10;;;9.90;99.90;;;;;;4964390;28;20540;-75
2021/05/12 06:25:52;;;;;;;0.10;0.10;;;10.00;99.90;;;;;;4952440;28;20957;-75
2021/05/12 06:28:19;;;;;;;0.22;0.05;;;10.10;99.90;;;;;;4964321;28;20452;-75
2021/05/12 06:30:49;;;;;;;0.10;0.00;;;10.00;99.90;;;;;;4954601;28;20103;-76
2021/05/12 06:33:18;;;;;;;1.48;0.10;;;10.10;99.90;;;;;;4964861;28;20222;-77
2021/05/12 06:35:45;;;;;;;0.20;0.10;;;10.00;99.90;;;;;;4953932;28;20660;-76
2021/05/12 06:38:11;;;;;;;0.28;0.22;;;10.20;99.90;;;;;;4952761;28;20083;-76
2021/05/12 06:40:37;;;;;;;0.20;0.10;;;10.20;99.90;;;;;;4952689;28;20091;-76
2021/05/12 06:43:06;;;;;;;1.50;0.85;;;10.30;99.90;;;;;;4971880;28;20532;-76
2021/05/12 06:45:31;;;;;;;0.20;0.10;;;10.20;99.90;;;;;;4970761;28;20078;-76
2021/05/12 06:47:57;;;;;;;0.40;0.17;;;10.30;99.90;;;;;;4971919;28;20471;-77
2021/05/12 06:50:24;;;;;;;0.40;0.15;;;10.30;99.90;;;;;;4972062;28;20075;-77
2021/05/12 06:52:57;;;;;;;0.70;0.17;;;10.20;99.90;;;;;;4971424;28;20075;-76
2021/05/12 06:55:24;;;;;;;0.30;0.10;;;10.30;99.90;;;;;;4972633;28;20118;-76
2021/05/12 06:57:49;;;;;;;0.13;0.03;;;10.30;99.90;;;;;;4971713;28;20146;-77
2021/05/12 07:00:15;;;;;;;1.50;0.20;;;10.40;99.90;;;;;;4971650;28;20178;-77
2021/05/12 07:02:42;;;;;;;0.10;0.10;;;10.20;99.90;;;;;;4962911;28;20647;-76
2021/05/12 07:05:08;;;;;;;0.90;0.10;;;10.20;99.90;;;;;;4967652;28;20075;-75
2021/05/12 07:07:33;;;;;;;0.80;0.68;;;10.20;99.90;;;;;;4958731;28;20086;-78
2021/05/12 07:09:59;;;;;;;0.88;0.60;;;10.30;99.90;;;;;;4953551;28;20103;-78
2021/05/12 07:12:25;;;;;;;0.93;0.63;;;10.20;99.90;;;;;;4968785;28;20086;-77
2021/05/12 07:14:51;;;;;;;1.40;0.40;;;10.30;99.90;;;;;;4949724;28;20137;-77
2021/05/12 07:17:17;;;;;;;0.55;0.28;;;10.30;99.90;;;;;;4966525;28;20087;-77
2021/05/12 07:19:43;;;;;;;1.10;0.50;;;10.30;99.90;;;;;;4952207;28;20568;-77
2021/05/12 07:22:08;;;;;;;0.57;0.45;;;10.30;99.90;;;;;;4956014;28;20094;-76
2021/05/12 07:24:34;;;;;;;0.47;0.22;;;10.30;99.90;;;;;;4952614;29;20086;-77
2021/05/12 07:27:00;;;;;;;0.30;0.30;;;10.40;99.90;;;;;;4970127;28;20082;-76
2021/05/12 07:29:25;;;;;;;0.98;0.20;;;10.50;99.90;;;;;;4954094;28;20075;-75
2021/05/12 07:31:51;;;;;;;0.88;0.22;;;10.40;99.90;;;;;;4952761;28;20130;-75
2021/05/12 07:34:18;;;;;;;1.60;0.30;;;10.60;99.90;;;;;;4971016;28;20091;-75
2021/05/12 07:36:43;;;;;;;0.90;0.40;;;10.50;99.90;;;;;;4965882;28;20540;-76
2021/05/12 07:39:09;;;;;;;0.30;0.20;;;10.60;99.90;;;;;;4954717;28;20098;-76
2021/05/12 07:41:35;;;;;;;1.98;0.20;;;10.50;99.90;;;;;;4963265;28;20106;-76
2021/05/12 07:44:04;;;;;;;0.20;0.20;;;10.60;99.90;;;;;;4962510;28;20165;-76
2021/05/12 07:46:31;;;;;;;2.00;0.30;;;10.60;99.90;;;;;;4965380;28;20076;-76
2021/05/12 07:48:56;;;;;;;0.30;0.20;;;10.70;99.90;;;;;;4970416;28;20539;-76
2021/05/12 07:51:23;;;;;;;1.25;0.80;;;10.60;99.90;;;;;;4964512;28;20099;-75
2021/05/12 07:53:49;;;;;;;1.02;0.63;;;10.60;99.90;;;;;;4970535;28;20086;-75
2021/05/12 07:56:15;;;;;;;0.90;0.30;;;10.70;99.90;;;;;;4970031;28;20127;-77
2021/05/12 07:58:41;;;;;;;2.40;0.40;;;10.90;99.90;;;;;;4966725;28;20532;-76
2021/05/12 08:01:29;;;;;;;1.65;0.30;;;10.80;99.90;;;;;;4961850;28;20095;-75
2021/05/12 08:03:54;;;;;;;2.38;0.30;;;10.70;99.90;;;;;;4950208;28;20087;-75
2021/05/12 08:06:20;;;;;;;0.50;0.30;;;10.80;99.90;;;;;;4954616;28;20072;-75
2021/05/12 08:08:45;;;;;;;0.30;0.30;;;10.80;99.90;;;;;;4965143;28;20083;-77
2021/05/12 08:11:11;;;;;;;0.40;0.28;;;10.80;99.90;;;;;;4966055;28;20087;-75
2021/05/12 08:13:36;;;;;;;0.95;0.30;;;10.80;99.90;;;;;;4970257;28;20076;-77
2021/05/12 08:16:02;;;;;;;1.00;0.30;;;10.90;99.90;;;;;;4957885;28;20090;-75
2021/05/12 08:18:28;;;;;;;0.70;0.50;;;10.90;99.90;;;;;;4968767;28;20568;-76
2021/05/12 08:20:56;;;;;;;0.43;0.38;;;11.00;99.90;;;;;;4970005;28;20491;-76
2021/05/12 08:23:23;;;;;;;0.82;0.68;;;11.00;99.90;;;;;;4942023;28;20080;-75
2021/05/12 08:25:49;;;;;;;0.60;0.32;;;11.00;99.90;;;;;;4955417;29;20064;-75
2021/05/12 08:28:14;;;;;;;2.58;0.40;;;11.00;99.90;;;;;;4958049;28;20194;-75
2021/05/12 08:30:45;;;;;;;0.70;0.50;;;11.20;99.90;;;;;;4968510;28;20530;-76
2021/05/12 08:33:12;;;;;;;0.63;0.47;;;11.20;99.90;;;;;;4961730;28;20102;-76
2021/05/12 08:35:40;;;;;;;1.17;0.32;;;11.10;99.90;;;;;;4966536;28;20072;-75
2021/05/12 08:38:06;;;;;;;0.63;0.38;;;11.20;99.90;;;;;;4970068;28;20099;-77
2021/05/12 08:40:33;;;;;;;1.42;0.40;;;11.30;99.90;;;;;;4956596;28;20138;-76
2021/05/12 08:43:02;;;;;;;0.63;0.40;;;11.20;99.90;;;;;;4966815;28;20095;-77
2021/05/12 08:45:28;;;;;;;0.60;0.50;;;11.20;99.90;;;;;;4964290;28;20072;-80
2021/05/12 08:47:55;;;;;;;0.43;0.40;;;11.20;99.90;;;;;;4955993;28;20075;-76
2021/05/12 08:50:21;;;;;;;1.08;0.60;;;11.20;99.90;;;;;;4974339;28;20853;-75
2021/05/12 08:52:49;;;;;;;0.40;0.40;;;11.30;99.90;;;;;;4964702;28;20155;-76
2021/05/12 08:55:15;;;;;;;0.70;0.45;;;11.40;99.90;;;;;;4958086;28;20162;-77
2021/05/12 08:57:41;;;;;;;1.85;0.40;;;11.30;99.90;;;;;;4938803;29;20158;-77
2021/05/12 09:00:07;;;;;;;0.57;0.43;;;11.30;99.90;;;;;;4958510;28;20098;-77
2021/05/12 09:02:33;;;;;;;0.57;0.47;;;11.40;99.90;;;;;;4968785;28;20095;-77
2021/05/12 09:04:59;;;;;;;0.70;0.55;;;11.30;99.90;;;;;;4971565;28;20131;-77
2021/05/12 09:07:24;;;;;;;0.30;0.30;;;11.30;99.90;;;;;;4966810;28;20599;-76
2021/05/12 09:09:50;;;;;;;1.05;0.50;;;11.30;99.90;;;;;;4966109;28;20185;-78
2021/05/12 09:12:17;;;;;;;0.50;0.47;;;11.40;99.90;;;;;;4955626;28;20075;-76
2021/05/12 09:14:42;;;;;;;2.60;0.60;;;11.40;99.90;;;;;;4969911;28;20072;-75
2021/05/12 09:17:08;;;;;;;0.50;0.50;;;11.50;99.90;;;;;;4965515;28;20102;-75
2021/05/12 09:19:34;;;;;;;1.42;0.52;;;11.50;99.90;;;;;;4970447;28;20099;-76
2021/05/12 09:22:05;;;;;;;0.82;0.57;;;11.50;99.90;;;;;;4971849;28;20544;-77
2021/05/12 09:24:33;;;;;;;1.20;0.60;;;11.50;99.90;;;;;;4970639;28;20075;-75
2021/05/12 09:27:16;;;;;;;0.50;0.47;;;11.60;99.90;;;;;;4953784;28;20452;-75
2021/05/12 09:29:45;;;;;;;1.42;0.45;;;11.60;99.90;;;;;;4954285;28;20234;-76
2021/05/12 09:32:18;;;;;;;0.52;0.43;;;11.60;99.90;;;;;;4959734;28;20162;-75
2021/05/12 09:35:00;;;;;;;0.63;0.55;;;11.60;99.90;;;;;;4959383;28;20071;-75
2021/05/12 09:37:25;;;;;;;1.25;0.80;;;11.50;99.90;;;;;;4967423;28;20074;-76
2021/05/12 09:39:52;;;;;;;0.90;0.43;;;11.40;99.90;;;;;;4961978;28;20115;-75
2021/05/12 09:42:19;;;;;;;0.60;0.60;;;11.40;99.90;;;;;;4961398;28;20642;-74
2021/05/12 09:44:45;;;;;;;0.90;0.80;;;11.40;99.90;;;;;;4968246;28;20088;-76
2021/05/12 09:47:10;;;;;;;0.73;0.60;;;11.20;99.90;;;;;;4952123;28;20078;-75
2021/05/12 09:49:40;;;;;;;1.17;0.77;;;11.40;99.90;;;;;;4953457;28;20091;-75
2021/05/12 09:52:06;;;;;;;0.77;0.73;;;11.20;99.90;;;;;;4969343;28;20079;-75
2021/05/12 09:54:33;;;;;;;1.00;0.85;;;11.40;99.90;;;;;;4955866;28;20600;-75
2021/05/12 09:57:00;;;;;;;0.85;0.80;;;11.40;99.90;;;;;;4957894;28;20074;-75
2021/05/12 09:59:32;;;;;;;0.80;0.73;;;11.40;99.90;;;;;;4968793;28;20540;-76
2021/05/12 10:02:00;;;;;;;2.50;1.50;;;11.40;99.90;;;;;;4969640;28;20083;-75
2021/05/12 10:04:45;;;;;;;1.77;0.77;;;11.40;99.90;;;;;;4962532;28;20498;-75
2021/05/12 10:07:16;;;;;;;1.85;0.68;;;11.40;99.90;;;;;;4969750;28;20439;-76
2021/05/12 10:09:44;;;;;;;0.68;0.68;;;11.40;99.90;;;;;;4960314;28;20095;-76
2021/05/12 10:12:16;;;;;;;0.77;0.75;;;11.40;99.90;;;;;;4949184;28;20082;-75
2021/05/12 10:14:56;;;;;;;1.80;1.00;;;11.30;99.90;;;;;;4948214;28;20692;-75
2021/05/12 10:17:23;;;;;;;1.98;1.00;;;11.40;99.90;;;;;;4968147;28;20562;-75
2021/05/12 10:19:49;;;;;;;2.97;1.48;;;11.30;99.90;;;;;;4964218;28;20099;-75
2021/05/12 10:22:16;;;;;;;1.08;0.90;;;11.20;99.90;;;;;;4970359;28;20607;-75
2021/05/12 10:24:44;;;;;;;1.67;1.05;;;11.40;99.90;;;;;;4971962;28;20487;-75
2021/05/12 10:27:15;;;;;;;1.48;1.38;;;11.40;99.90;;;;;;4970415;28;20078;-75
2021/05/12 10:29:50;;;;;;;1.55;1.42;;;11.30;99.90;;;;;;4962417;28;20195;-76
2021/05/12 10:32:28;;;;;;;1.73;1.30;;;11.30;99.90;;;;;;4968974;28;20161;-75
2021/05/12 10:35:03;;;;;;;1.40;1.30;;;11.30;99.90;;;;;;4953706;28;20075;-74
2021/05/12 10:37:29;;;;;;;;;;;11.40;99.90;;;;;;4966572;28;20556;-75
2021/05/12 10:40:01;;;;;;;1.88;1.52;;;11.30;99.90;;;;;;4948740;28;19994;-75
2021/05/12 10:42:48;;;;;;;1.50;1.35;;;11.40;99.90;;;;;;4965719;28;20087;-74
2021/05/12 10:45:33;;;;;;;1.63;1.30;;;11.30;99.90;;;;;;4953693;28;20460;-76
2021/05/12 10:48:00;;;;;;;1.80;1.50;;;11.20;99.90;;;;;;4964506;28;20202;-74
2021/05/12 10:50:45;;;;;;;1.98;1.75;;;11.20;99.90;;;;;;4958449;28;20100;-74
2021/05/12 10:53:21;;;;;;;1.30;1.20;;;11.10;99.90;;;;;;4952154;28;20080;-74
2021/05/12 10:55:55;;;;;;;1.67;1.55;;;11.20;99.90;;;;;;4956688;28;20456;-74
2021/05/12 10:58:22;;;;;;;2.20;1.55;;;11.20;99.90;;;;;;4940588;28;20428;-74
2021/05/12 11:00:57;;;;;;;2.55;1.58;;;11.20;99.90;;;;;;4960952;28;20125;-75
2021/05/12 11:03:25;;;;;;;1.90;1.70;;;11.20;99.90;;;;;;4956440;28;20075;-76
2021/05/12 11:05:56;;;;;;;1.95;1.80;;;11.10;99.90;;;;;;4959025;28;21927;-76
2021/05/12 11:08:22;;;;;;;1.70;1.48;;;11.20;99.90;;;;;;4969309;28;20071;-75
2021/05/12 11:11:05;;;;;;;1.88;1.58;;;11.20;99.90;;;;;;4951232;28;20095;-75
2021/05/12 11:13:33;;;;;;;3.03;1.60;;;11.10;99.90;;;;;;4963389;28;20101;-75
2021/05/12 11:16:04;;;;;;;1.70;1.45;;;11.20;99.90;;;;;;4950905;28;20079;-74
2021/05/12 11:18:35;;;;;;;1.52;1.42;;;11.20;99.90;;;;;;4968361;28;20448;-75
2021/05/12 11:21:17;;;;;;;3.65;2.58;;;11.30;99.90;;;;;;4960542;28;20100;-75
2021/05/12 11:24:04;;;;;;;1.67;1.58;;;11.30;99.90;;;;;;4955412;28;20071;-75
2021/05/12 11:32:07;;;;;;;;;;;11.30;99.90;;;;;;4955465;28;20090;-75
2021/05/12 11:34:33;;;;;;;1.92;1.00;;;11.30;99.90;;;;;;4971417;28;19969;-75
2021/05/12 11:37:14;;;;;;;0.98;0.65;;;11.10;99.90;;;;;;4958649;28;20079;-75
2021/05/12 11:39:40;;;;;;;1.08;0.90;;;11.10;99.90;;;;;;4970929;28;20107;-75
2021/05/12 11:42:20;;;;;;;1.15;0.80;;;11.10;99.90;;;;;;4973181;28;20087;-75
2021/05/12 11:44:46;;;;;;;1.85;1.02;;;11.10;99.90;;;;;;4949247;29;20083;-75
2021/05/12 11:47:11;;;;;;;2.67;1.20;;;11.00;99.90;;;;;;4950174;28;20072;-76
2021/05/12 11:49:39;;;;;;;2.03;1.48;;;11.10;99.90;;;;;;4955834;28;20091;-78
2021/05/12 11:52:05;;;;;;;1.45;1.00;;;11.00;99.90;;;;;;4962597;28;20086;-79
2021/05/12 11:54:31;;;;;;;2.65;1.25;;;11.10;99.90;;;;;;4963673;28;20135;-77
2021/05/12 11:56:58;;;;;;;0.82;0.77;;;11.10;99.90;;;;;;4965324;28;20129;-76
2021/05/12 11:59:34;;;;;;;1.15;0.93;;;11.20;99.90;;;;;;4951140;28;20126;-77
2021/05/12 12:02:12;;;;;;;0.70;0.70;;;11.20;99.90;;;;;;4944483;28;20105;-76
2021/05/12 12:04:46;;;;;;;1.38;0.60;;;11.20;99.90;;;;;;4964054;28;20082;-75
2021/05/12 12:07:11;;;;;;;0.98;0.90;;;11.20;99.90;;;;;;4961334;28;20078;-76
2021/05/12 12:09:37;;;;;;;0.98;0.85;;;11.30;99.90;;;;;;4967565;28;20091;-79
2021/05/12 12:12:03;;;;;;;2.20;1.00;;;11.20;99.90;;;;;;4947817;28;20121;-79
2021/05/12 12:14:30;;;;;;;1.33;0.98;;;11.20;99.90;;;;;;4960714;28;20122;-76
2021/05/12 12:16:56;;;;;;;2.13;1.40;;;11.10;99.90;;;;;;4963112;28;20176;-78
2021/05/12 12:19:24;;;;;;;2.97;1.85;;;11.10;99.90;;;;;;4958852;28;20535;-77
2021/05/12 12:21:52;;;;;;;2.03;1.40;;;11.10;99.90;;;;;;4970790;28;20090;-74
2021/05/12 12:24:24;;;;;;;1.50;1.40;;;11.10;99.90;;;;;;4972874;28;20110;-74
2021/05/12 12:26:55;;;;;;;2.17;1.50;;;11.00;99.90;;;;;;4973225;28;20071;-75
2021/05/12 12:29:27;;;;;;;1.85;1.40;;;11.00;99.90;;;;;;4962860;28;20772;-75
2021/05/12 12:31:55;;;;;;;2.28;1.45;;;11.00;99.90;;;;;;4969113;28;20086;-75
2021/05/12 12:34:35;;;;;;;3.00;1.17;;;11.00;99.90;;;;;;4954402;28;20575;-75
2021/05/12 12:37:17;;;;;;;1.80;1.50;;;11.00;99.90;;;;;;4948711;28;20573;-75
2021/05/12 12:42:22;;;;;;;1.40;0.90;;;11.10;99.90;;;;;;4962004;28;20127;-75
2021/05/12 12:44:48;;;;;;;1.52;0.88;;;11.10;99.90;;;;;;4964716;28;20114;-75
2021/05/12 12:47:19;;;;;;;1.15;0.80;;;11.10;99.90;;;;;;4951121;28;20071;-79
2021/05/12 12:49:55;;;;;;;1.60;1.00;;;10.90;99.90;;;;;;4951679;28;20095;-76
2021/05/12 12:52:23;;;;;;;1.17;0.73;;;11.00;99.90;;;;;;4957292;28;20067;-77
2021/05/12 12:54:57;;;;;;;1.40;0.93;;;10.90;99.90;;;;;;4956750;28;20076;-77
2021/05/12 12:57:24;;;;;;;0.88;0.68;;;10.90;99.90;;;;;;4952562;28;20093;-76
2021/05/12 13:00:00;;;;;;;0.80;0.80;;;11.00;99.90;;;;;;4965582;28;20260;-75